Time;durP1;ratioP1;P1;durP2;ratioP2;P2;SDS_P1;SDS_P2;PMS_P1;PMS_P2;Temp;Humidity;BMP_temperature;BMP_pressure;BME280_temperature;BME280_humidity;BME280_pressure;Samples;Min_cycle;Max_cycle;Signal;HPM_P1;HPM_P2
2021/05/19 00:02:08;;;;;;;2.33;1.40;;;;;;;8.48;87.45;96576.31;4926297;29;20134;-61
2021/05/19 00:04:33;;;;;;;4.47;1.60;;;;;;;9.03;89.19;96639.19;4928546;29;20086;-64
2021/05/19 00:06:59;;;;;;;4.63;1.20;;;;;;;9.44;86.97;96687.22;4928315;29;20043;-61
2021/05/19 00:09:24;;;;;;;3.78;1.20;;;;;;;9.50;88.82;96686.50;4926816;29;20518;-63
2021/05/19 00:11:50;;;;;;;3.17;1.30;;;;;;;9.54;88.85;96668.03;4927893;29;20040;-61
2021/05/19 00:14:17;;;;;;;5.82;1.27;;;;;;;9.37;86.79;96629.84;4926713;29;20094;-61
2021/05/19 00:16:44;;;;;;;0.90;0.90;;;;;;;9.59;82.29;96670.47;4927945;29;20043;-63
2021/05/19 00:19:10;;;;;;;2.05;1.30;;;;;;;9.33;86.53;96669.66;4928218;29;20099;-62
2021/05/19 00:21:36;;;;;;;1.92;1.30;;;;;;;9.17;89.74;96711.25;4925785;29;20044;-63
2021/05/19 00:24:03;;;;;;;1.67;1.30;;;;;;;9.27;89.13;96705.09;4927972;29;20055;-62
2021/05/19 00:26:28;;;;;;;2.63;1.20;;;;;;;9.28;89.67;96706.69;4927785;29;20028;-62
2021/05/19 00:28:58;;;;;;;4.47;1.55;;;;;;;9.34;91.70;96688.66;4928582;29;20086;-62
2021/05/19 00:31:26;;;;;;;2.83;1.50;;;;;;;9.29;92.21;96694.50;4927475;29;20111;-63
2021/05/19 00:33:52;;;;;;;5.93;1.60;;;;;;;8.91;91.16;96661.47;4926853;29;20032;-63
2021/05/19 00:36:17;;;;;;;4.18;1.50;;;;;;;9.35;91.64;96703.25;4926111;29;20039;-61
2021/05/19 00:38:44;;;;;;;5.78;1.40;;;;;;;9.40;88.12;96702.94;4927945;29;20036;-63
2021/05/19 00:41:12;;;;;;;7.10;1.60;;;;;;;9.48;88.74;96699.94;4927422;29;20035;-61
2021/05/19 00:43:37;;;;;;;2.75;1.60;;;;;;;9.42;87.92;96695.84;4926129;29;20454;-61
2021/05/19 00:46:03;;;;;;;1.80;1.25;;;;;;;9.25;88.25;96690.06;4927784;29;20028;-60
2021/05/19 00:48:29;;;;;;;2.13;1.40;;;;;;;9.37;88.03;96715.53;4927545;29;20533;-61
2021/05/19 00:50:54;;;;;;;2.58;1.00;;;;;;;9.26;88.20;96688.91;4927135;29;20546;-61
2021/05/19 00:53:19;;;;;;;4.72;1.00;;;;;;;9.43;85.92;96697.47;4927890;29;20035;-63
2021/05/19 00:55:45;;;;;;;1.33;1.15;;;;;;;9.23;86.07;96697.94;4926892;29;20046;-61
2021/05/19 00:58:12;;;;;;;9.70;1.60;;;;;;;9.28;85.03;96695.63;4927842;29;20039;-60
2021/05/19 01:00:38;;;;;;;2.55;1.30;;;;;;;9.40;85.32;96712.03;4925448;29;20042;-60
2021/05/19 01:03:03;;;;;;;2.00;1.38;;;;;;;9.43;82.32;96725.13;4927691;29;20043;-61
2021/05/19 01:06:19;;;;;;;2.78;1.27;;;;;;;8.53;83.86;96584.28;4926349;29;20119;-60
2021/05/19 01:11:11;;;;;;;1.77;1.20;;;;;;;9.12;83.15;96698.53;4927189;29;20578;-61
2021/05/19 01:13:38;;;;;;;;;;;;;;;9.13;84.63;96704.88;4927603;29;20130;-60
2021/05/19 01:16:04;;;;;;;2.58;1.02;;;;;;;9.04;84.05;96693.28;4926961;29;19925;-61
2021/05/19 01:18:30;;;;;;;1.52;0.98;;;;;;;9.20;83.49;96693.91;4927655;29;20514;-61
2021/05/19 01:20:56;;;;;;;1.63;0.98;;;;;;;8.67;82.59;96609.38;4925097;29;20578;-61
2021/05/19 01:23:24;;;;;;;1.02;0.90;;;;;;;9.34;81.81;96685.88;4925809;29;20059;-61
2021/05/19 01:25:49;;;;;;;1.55;0.90;;;;;;;9.31;81.96;96683.84;4925085;29;20031;-61
2021/05/19 01:28:14;;;;;;;3.63;0.93;;;;;;;9.24;82.12;96689.25;4927283;29;20038;-61
2021/05/19 01:30:41;;;;;;;1.13;1.00;;;;;;;9.43;79.83;96680.88;4925467;29;20027;-62
2021/05/19 01:33:07;;;;;;;2.63;1.10;;;;;;;9.50;79.24;96680.97;4927333;29;20127;-61
2021/05/19 01:35:32;;;;;;;2.40;1.00;;;;;;;9.64;78.12;96674.88;4925039;29;20040;-62
2021/05/19 01:37:58;;;;;;;2.83;1.00;;;;;;;9.13;79.31;96610.94;4925181;29;20130;-62
2021/05/19 01:40:23;;;;;;;2.25;1.15;;;;;;;9.01;79.16;96591.78;4926803;29;20035;-62
2021/05/19 01:42:50;;;;;;;1.33;1.20;;;;;;;9.61;80.78;96681.94;4926867;29;20044;-61
2021/05/19 01:45:18;;;;;;;5.82;0.98;;;;;;;9.35;81.60;96629.44;4926281;29;20046;-62
2021/05/19 01:47:49;;;;;;;1.95;1.10;;;;;;;9.22;83.51;96694.34;4926971;29;20299;-62
2021/05/19 01:50:18;;;;;;;1.85;1.00;;;;;;;9.18;84.78;96696.28;4924591;29;20039;-63
2021/05/19 01:52:44;;;;;;;2.45;1.42;;;;;;;9.17;86.36;96691.91;4926879;29;20036;-61
2021/05/19 01:55:12;;;;;;;9.93;1.35;;;;;;;9.15;86.60;96688.72;4926336;29;20095;-61
2021/05/19 01:57:38;;;;;;;1.85;1.10;;;;;;;9.20;85.02;96694.72;4925212;29;20047;-63
2021/05/19 02:00:06;;;;;;;1.45;1.23;;;;;;;8.93;85.43;96686.78;4925476;29;20455;-61
2021/05/19 02:02:31;;;;;;;1.60;1.10;;;;;;;9.12;85.78;96706.03;4925168;29;20162;-60
2021/05/19 02:04:57;;;;;;;2.17;1.30;;;;;;;8.63;86.39;96652.72;4926639;29;20118;-62
2021/05/19 02:07:23;;;;;;;2.55;2.25;;;;;;;8.28;86.00;96611.47;4924342;29;20455;-62
2021/05/19 02:09:48;;;;;;;1.33;1.00;;;;;;;8.78;87.49;96704.25;4926531;29;20122;-61
2021/05/19 02:12:14;;;;;;;1.25;1.00;;;;;;;8.73;85.47;96699.81;4924378;29;20138;-61
2021/05/19 02:14:40;;;;;;;5.15;1.23;;;;;;;8.66;86.71;96680.34;4926736;29;20039;-61
2021/05/19 02:17:05;;;;;;;1.20;1.10;;;;;;;8.08;88.47;96609.06;4929178;29;20511;-63
2021/05/19 02:19:31;;;;;;;1.60;1.20;;;;;;;8.65;87.63;96703.63;4933109;29;20115;-61
2021/05/19 02:21:56;;;;;;;0.90;0.90;;;;;;;8.46;85.62;96669.72;4930942;29;20486;-63
2021/05/19 02:24:22;;;;;;;2.67;1.25;;;;;;;8.76;87.25;96712.09;4932508;29;20555;-62
2021/05/19 02:26:47;;;;;;;2.70;1.10;;;;;;;8.15;86.83;96631.25;4930588;29;20047;-62
2021/05/19 02:29:14;;;;;;;1.58;1.25;;;;;;;8.70;87.70;96725.41;4932386;29;20192;-63
2021/05/19 02:31:40;;;;;;;1.92;1.40;;;;;;;8.75;89.15;96716.84;4932210;29;20042;-62
2021/05/19 02:34:06;;;;;;;1.50;1.40;;;;;;;8.86;87.55;96722.53;4932664;29;20123;-62
2021/05/19 02:36:32;;;;;;;2.22;1.35;;;;;;;7.94;86.42;96570.97;4932167;29;20459;-62
2021/05/19 02:38:57;;;;;;;1.65;1.35;;;;;;;8.69;86.89;96723.03;4932703;29;20035;-62
2021/05/19 02:41:24;;;;;;;5.35;1.95;;;;;;;8.68;87.61;96726.91;4931886;29;20031;-62
2021/05/19 02:43:49;;;;;;;3.65;1.73;;;;;;;8.01;89.51;96650.28;4932435;29;20090;-62
2021/05/19 02:46:15;;;;;;;3.70;1.80;;;;;;;7.96;88.75;96662.41;4932104;29;20039;-64
2021/05/19 02:48:41;;;;;;;5.15;2.00;;;;;;;8.58;89.17;96719.25;4930886;29;20139;-62
2021/05/19 02:51:07;;;;;;;4.75;1.98;;;;;;;8.66;90.29;96719.00;4932098;29;20106;-63
2021/05/19 02:53:33;;;;;;;12.98;5.55;;;;;;;8.58;89.29;96706.22;4932605;29;20102;-63
2021/05/19 02:55:58;;;;;;;10.63;4.50;;;;;;;8.70;87.82;96719.88;4932515;29;20035;-61
2021/05/19 02:58:24;;;;;;;3.70;1.50;;;;;;;8.48;87.27;96706.03;4932631;29;20047;-61
2021/05/19 03:00:49;;;;;;;2.40;1.10;;;;;;;8.66;85.54;96748.59;4931949;29;20044;-61
2021/05/19 03:03:15;;;;;;;4.20;1.88;;;;;;;8.46;88.81;96735.94;4930781;29;20110;-62
2021/05/19 03:05:41;;;;;;;3.17;1.15;;;;;;;8.10;89.29;96667.41;4930595;29;20039;-62
2021/05/19 03:08:06;;;;;;;1.50;1.10;;;;;;;8.67;88.79;96733.63;4932630;29;20050;-62
2021/05/19 03:10:34;;;;;;;1.80;1.20;;;;;;;8.58;86.37;96728.31;4931796;29;20442;-62
2021/05/19 03:13:01;;;;;;;3.97;1.30;;;;;;;8.60;88.65;96725.22;4932950;29;20075;-62
2021/05/19 03:15:27;;;;;;;4.00;1.35;;;;;;;8.64;85.17;96746.19;4932211;29;20027;-61
2021/05/19 03:17:52;;;;;;;3.40;1.50;;;;;;;7.73;88.38;96604.41;4932188;29;20465;-61
2021/05/19 03:20:18;;;;;;;2.55;1.20;;;;;;;8.17;88.71;96673.06;4932639;29;20036;-62
2021/05/19 03:22:44;;;;;;;2.03;1.45;;;;;;;8.76;87.59;96725.91;4931700;29;20048;-61
2021/05/19 03:25:10;;;;;;;6.18;1.50;;;;;;;8.73;88.83;96730.19;4931608;29;20048;-61
2021/05/19 03:27:35;;;;;;;1.83;1.40;;;;;;;8.89;86.70;96724.56;4931514;29;20039;-62
2021/05/19 03:30:07;;;;;;;5.15;1.58;;;;;;;8.91;87.24;96725.00;4926938;29;20531;-61
2021/05/19 03:32:33;;;;;;;3.60;1.50;;;;;;;6.48;85.95;96316.97;4929202;29;20344;-61
2021/05/19 03:34:59;;;;;;;4.47;1.50;;;;;;;9.17;86.26;96734.16;4927803;29;20040;-61
2021/05/19 03:37:24;;;;;;;4.60;1.33;;;;;;;9.21;84.91;96721.19;4926748;29;20464;-61
2021/05/19 03:39:50;;;;;;;1.30;1.20;;;;;;;9.43;84.29;96722.34;4928790;29;20039;-61
2021/05/19 03:42:15;;;;;;;3.53;1.30;;;;;;;9.50;83.28;96711.38;4926471;29;20080;-61
2021/05/19 03:44:41;;;;;;;1.30;1.10;;;;;;;9.80;81.53;96734.38;4927262;29;20051;-62
2021/05/19 03:47:07;;;;;;;2.25;1.60;;;;;;;9.35;81.78;96628.63;4927013;29;20074;-62
2021/05/19 03:49:37;;;;;;;2.20;1.48;;;;;;;10.15;81.38;96734.91;4927198;29;20162;-62
2021/05/19 03:52:03;;;;;;;2.05;1.30;;;;;;;10.28;79.20;96739.03;4928439;29;20039;-63
2021/05/19 03:54:31;;;;;;;2.10;1.90;;;;;;;10.26;78.47;96715.66;4928500;29;20054;-62
2021/05/19 03:56:57;;;;;;;2.85;1.75;;;;;;;10.36;79.75;96735.19;4928546;29;20087;-62
2021/05/19 03:59:22;;;;;;;3.60;1.92;;;;;;;10.44;81.08;96731.34;4928616;29;20035;-64
2021/05/19 04:01:48;;;;;;;3.55;2.22;;;;;;;10.59;79.21;96735.88;4926504;29;20035;-63
2021/05/19 04:04:13;;;;;;;3.83;1.75;;;;;;;10.66;78.80;96735.97;4928318;29;20039;-62
2021/05/19 04:06:39;;;;;;;1.83;1.70;;;;;;;10.09;81.36;96696.88;4927867;29;20028;-63
2021/05/19 04:09:06;;;;;;;2.97;1.50;;;;;;;10.09;80.23;96722.56;4928229;29;20074;-62
2021/05/19 04:11:32;;;;;;;1.90;1.70;;;;;;;10.23;80.38;96742.13;4927950;29;20067;-62
2021/05/19 04:13:58;;;;;;;12.70;2.05;;;;;;;10.36;79.35;96751.00;4928056;29;20067;-62
2021/05/19 04:16:23;;;;;;;4.38;2.58;;;;;;;10.43;78.00;96751.09;4928433;29;20114;-63
2021/05/19 04:18:49;;;;;;;4.05;2.78;;;;;;;9.77;77.55;96618.94;4928149;29;20175;-62
2021/05/19 04:21:14;;;;;;;3.53;1.58;;;;;;;10.67;76.62;96745.03;4926072;29;20067;-62
2021/05/19 04:23:40;;;;;;;2.78;1.90;;;;;;;10.76;76.67;96747.53;4928101;29;20111;-64
2021/05/19 04:26:07;;;;;;;3.80;2.10;;;;;;;10.51;76.08;96692.66;4926484;29;20614;-62
2021/05/19 04:28:33;;;;;;;3.63;1.92;;;;;;;10.47;75.84;96641.16;4928406;29;20035;-64
2021/05/19 04:30:58;;;;;;;3.70;2.00;;;;;;;11.32;74.62;96742.56;4927703;29;20123;-62
2021/05/19 04:33:24;;;;;;;4.60;2.95;;;;;;;11.43;73.95;96749.03;4928449;29;20091;-62
2021/05/19 04:35:49;;;;;;;4.00;2.88;;;;;;;11.63;73.36;96756.72;4926259;29;20178;-63
2021/05/19 04:38:15;;;;;;;5.05;3.20;;;;;;;11.71;73.98;96752.06;4928182;29;20055;-62
2021/05/19 04:40:41;;;;;;;4.50;3.40;;;;;;;11.79;72.95;96750.94;4927164;29;20197;-64
2021/05/19 04:43:08;;;;;;;7.53;4.47;;;;;;;11.84;73.17;96717.25;4927756;29;20047;-62
2021/05/19 04:45:35;;;;;;;7.53;4.32;;;;;;;12.44;73.16;96748.94;4925791;29;20046;-66
2021/05/19 04:48:00;;;;;;;6.70;3.95;;;;;;;12.71;72.54;96744.69;4928054;29;20479;-62
2021/05/19 04:50:26;;;;;;;7.30;4.25;;;;;;;13.00;72.02;96749.22;4927755;29;20050;-62
2021/05/19 04:52:52;;;;;;;43.53;6.95;;;;;;;13.24;69.66;96737.34;4928032;29;20824;-62
2021/05/19 04:55:17;;;;;;;3.83;3.53;;;;;;;13.40;67.62;96718.28;4927341;29;20046;-64
2021/05/19 04:57:43;;;;;;;6.65;3.55;;;;;;;13.75;65.48;96736.19;4927856;29;20431;-62
2021/05/19 05:00:09;;;;;;;7.32;3.50;;;;;;;13.90;64.90;96735.78;4927267;29;20118;-62
2021/05/19 05:02:36;;;;;;;4.80;3.08;;;;;;;14.14;63.72;96731.34;4927315;29;20062;-63
2021/05/19 05:05:06;;;;;;;3.50;2.85;;;;;;;14.33;62.30;96736.53;4927533;29;20035;-63
2021/05/19 05:07:32;;;;;;;6.88;2.90;;;;;;;14.51;61.41;96748.44;4927402;29;20126;-63
2021/05/19 05:09:58;;;;;;;2.70;2.47;;;;;;;14.19;60.61;96658.53;4927497;29;20040;-62
2021/05/19 05:12:24;;;;;;;4.30;2.15;;;;;;;14.39;64.36;96668.03;4927195;29;20228;-62
2021/05/19 05:14:50;;;;;;;3.65;2.10;;;;;;;14.56;60.89;96667.16;4926405;29;20043;-63
2021/05/19 05:17:17;;;;;;;5.65;2.25;;;;;;;15.01;57.40;96705.19;4927010;29;20500;-62
2021/05/19 05:19:42;;;;;;;2.00;1.90;;;;;;;15.32;55.83;96726.50;4927349;29;20119;-62
2021/05/19 05:22:08;;;;;;;2.17;1.98;;;;;;;15.23;54.74;96687.09;4926947;29;20170;-64
2021/05/19 05:24:33;;;;;;;3.38;2.03;;;;;;;15.64;54.44;96724.31;4927317;29;20839;-62
2021/05/19 05:26:59;;;;;;;2.90;2.10;;;;;;;15.67;53.01;96703.94;4926852;29;20032;-63
2021/05/19 05:29:24;;;;;;;2.63;1.73;;;;;;;15.86;51.52;96730.50;4926917;29;20561;-61
2021/05/19 05:31:50;;;;;;;1.90;1.80;;;;;;;15.89;50.70;96691.38;4926570;29;20064;-60
2021/05/19 05:34:15;;;;;;;1.88;1.77;;;;;;;16.15;51.00;96718.66;4925624;29;20044;-63
2021/05/19 05:36:41;;;;;;;2.40;2.30;;;;;;;16.30;49.47;96702.53;4926960;29;20035;-61
2021/05/19 05:39:07;;;;;;;3.42;2.20;;;;;;;16.55;49.33;96726.22;4925385;29;20035;-61
2021/05/19 05:41:32;;;;;;;4.80;2.22;;;;;;;16.82;48.70;96719.94;4926074;29;20149;-61
2021/05/19 05:43:58;;;;;;;3.08;2.33;;;;;;;16.86;47.89;96724.28;4925400;29;20043;-61
2021/05/19 05:46:23;;;;;;;9.40;6.97;;;;;;;16.37;49.39;96608.22;4923747;29;20031;-61
2021/05/19 05:48:49;;;;;;;2.70;2.50;;;;;;;17.05;48.16;96720.03;4929379;29;20038;-61
2021/05/19 05:51:14;;;;;;;2.40;2.20;;;;;;;17.06;48.05;96716.00;4933788;29;20027;-62
2021/05/19 05:53:40;;;;;;;2.35;2.15;;;;;;;17.39;46.34;96723.53;4926120;29;20567;-61
2021/05/19 05:56:05;;;;;;;2.50;2.30;;;;;;;17.46;46.70;96698.25;4925386;29;20110;-61
2021/05/19 05:58:30;;;;;;;2.60;2.40;;;;;;;17.00;49.68;96633.75;4924834;29;20520;-61
2021/05/19 06:00:56;;;;;;;2.65;2.38;;;;;;;17.52;50.31;96693.75;4928534;29;20122;-61
2021/05/19 06:03:21;;;;;;;3.63;1.95;;;;;;;17.81;48.96;96711.72;4934533;28;20035;-63
2021/05/19 06:05:47;;;;;;;5.43;2.60;;;;;;;17.08;50.62;96615.63;4935425;29;20051;-60
2021/05/19 06:08:13;;;;;;;2.67;2.47;;;;;;;17.45;49.79;96624.66;4935310;28;20050;-60
2021/05/19 06:10:38;;;;;;;3.58;2.53;;;;;;;18.16;49.19;96702.69;4928191;29;20530;-61
2021/05/19 06:13:04;;;;;;;2.03;1.90;;;;;;;16.01;45.75;96399.50;4943820;28;20466;-63
2021/05/19 06:15:29;;;;;;;6.90;2.60;;;;;;;18.50;44.92;96702.47;4927951;28;20748;-62
2021/05/19 06:17:55;;;;;;;5.80;2.55;;;;;;;18.79;44.86;96709.91;4923794;29;20067;-60
2021/05/19 06:20:21;;;;;;;3.63;2.30;;;;;;;18.82;43.68;96685.78;4907105;29;20492;-58
2021/05/19 06:22:46;;;;;;;3.20;2.90;;;;;;;18.53;43.58;96631.47;4914731;29;20070;-56
2021/05/19 06:25:12;;;;;;;2.80;2.50;;;;;;;18.98;45.24;96689.47;4940457;29;20129;-60
2021/05/19 06:27:38;;;;;;;4.93;2.67;;;;;;;18.93;50.31;96692.78;4937026;28;20054;-61
2021/05/19 06:30:05;;;;;;;2.78;2.35;;;;;;;18.49;51.51;96684.88;4935146;29;20470;-61
2021/05/19 06:32:31;;;;;;;2.90;2.33;;;;;;;17.82;51.39;96618.00;4943381;29;20105;-59
2021/05/19 06:34:56;;;;;;;2.72;2.47;;;;;;;18.26;51.44;96682.06;4935544;28;20055;-59
2021/05/19 06:37:22;;;;;;;3.25;2.40;;;;;;;18.34;50.99;96683.50;4920534;29;20067;-58
2021/05/19 06:39:48;;;;;;;3.83;1.98;;;;;;;18.41;50.13;96668.59;4919677;29;20828;-60
2021/05/19 06:42:13;;;;;;;2.38;2.17;;;;;;;18.18;47.27;96588.09;4925681;29;20492;-61
2021/05/19 06:44:39;;;;;;;2.15;2.00;;;;;;;19.05;47.35;96677.25;4926108;29;20550;-59
2021/05/19 06:47:04;;;;;;;2.70;2.53;;;;;;;19.04;48.18;96654.03;4928345;29;20558;-61
2021/05/19 06:49:30;;;;;;;3.28;2.90;;;;;;;19.07;48.88;96641.94;4925624;29;20580;-58
2021/05/19 06:51:56;;;;;;;2.35;2.15;;;;;;;18.59;47.71;96644.56;4926489;29;20039;-58
2021/05/19 06:54:22;;;;;;;2.47;2.25;;;;;;;18.83;48.04;96623.63;4931091;28;20082;-58
2021/05/19 06:56:48;;;;;;;7.97;3.13;;;;;;;19.12;47.62;96700.38;4943140;28;20039;-63
2021/05/19 06:59:16;;;;;;;3.75;2.30;;;;;;;19.38;48.37;96668.50;4944716;28;20050;-57
2021/05/19 07:01:42;;;;;;;2.25;2.05;;;;;;;19.39;46.53;96661.66;4945238;28;20042;-61
2021/05/19 07:04:08;;;;;;;2.10;2.00;;;;;;;19.30;46.44;96661.47;4936330;28;20039;-60
2021/05/19 07:06:34;;;;;;;2.55;2.22;;;;;;;19.58;46.58;96655.16;4931178;29;20085;-60
2021/05/19 07:09:00;;;;;;;2.65;2.45;;;;;;;19.87;45.27;96643.25;4928230;29;20072;-57
2021/05/19 07:11:26;;;;;;;3.83;2.75;;;;;;;19.38;46.98;96592.66;4947970;28;20477;-58
2021/05/19 07:13:54;;;;;;;3.90;3.38;;;;;;;18.60;44.79;96393.69;4948331;28;20047;-65
2021/05/19 07:16:22;;;;;;;8.45;2.72;;;;;;;20.09;44.25;96599.25;4931591;28;20020;-58
2021/05/19 07:18:48;;;;;;;3.28;2.88;;;;;;;20.77;44.27;96644.78;4928864;29;20603;-56
2021/05/19 07:21:14;;;;;;;4.05;2.53;;;;;;;21.16;44.03;96638.78;4928065;29;20038;-60
2021/05/19 07:23:39;;;;;;;11.07;7.93;;;;;;;21.41;42.79;96615.44;4936834;29;20099;-58
2021/05/19 07:26:05;;;;;;;2.90;2.78;;;;;;;21.47;42.06;96616.47;4936724;29;20425;-62
2021/05/19 07:28:31;;;;;;;3.60;3.30;;;;;;;19.40;42.85;96288.84;4934135;29;20042;-61
2021/05/19 07:30:56;;;;;;;3.50;3.20;;;;;;;21.64;42.12;96607.41;4943202;29;20046;-59
2021/05/19 07:33:22;;;;;;;2.80;2.70;;;;;;;21.87;41.92;96612.72;4944285;29;20122;-57
2021/05/19 07:35:47;;;;;;;8.93;7.43;;;;;;;21.64;41.14;96572.81;4929205;28;20428;-62
2021/05/19 07:38:13;;;;;;;31.05;5.45;;;;;;;22.22;40.66;96614.28;4929339;29;20115;-55
2021/05/19 07:40:39;;;;;;;4.47;3.97;;;;;;;21.87;40.04;96570.41;4944249;28;20036;-62
2021/05/19 07:43:05;;;;;;;2.83;2.72;;;;;;;21.42;41.75;96584.00;4927893;29;20038;-59
2021/05/19 07:45:32;;;;;;;3.40;3.20;;;;;;;21.58;40.66;96574.63;4927404;29;20119;-59
2021/05/19 07:47:58;;;;;;;3.40;3.10;;;;;;;21.14;42.10;96610.28;4929398;29;20032;-60
2021/05/19 07:50:24;;;;;;;3.80;3.38;;;;;;;21.50;41.83;96584.56;4926757;29;20111;-61
2021/05/19 07:52:49;;;;;;;2.80;2.67;;;;;;;21.42;40.23;96557.88;4930498;29;20074;-59
2021/05/19 07:55:21;;;;;;;2.58;2.47;;;;;;;21.96;39.52;96573.31;4924833;29;20108;-59
2021/05/19 07:57:51;;;;;;;3.33;3.03;;;;;;;22.09;40.88;96520.47;4931717;28;20477;-62
2021/05/19 08:03:02;;;;;;;3.25;3.05;;;;;;;23.08;37.50;96587.31;4927269;29;20206;-60
2021/05/19 08:05:28;;;;;;;3.38;3.20;;;;;;;22.93;36.35;96539.06;4926685;29;20423;-60
2021/05/19 08:07:53;;;;;;;3.15;2.95;;;;;;;22.68;36.70;96536.41;4927634;29;20058;-63
2021/05/19 08:10:19;;;;;;;4.03;3.58;;;;;;;23.26;37.27;96590.25;4927023;29;20066;-62
2021/05/19 08:12:45;;;;;;;3.92;3.20;;;;;;;22.53;38.05;96514.81;4927852;29;20050;-62
2021/05/19 08:15:11;;;;;;;4.00;3.75;;;;;;;22.89;38.78;96580.00;4926873;29;20526;-61
2021/05/19 08:17:37;;;;;;;3.65;3.30;;;;;;;22.67;37.19;96579.25;4928053;29;20048;-62
2021/05/19 08:20:04;;;;;;;5.53;4.78;;;;;;;23.22;37.81;96584.69;4927816;29;20040;-59
2021/05/19 08:22:30;;;;;;;6.55;3.47;;;;;;;23.22;37.28;96581.88;4927324;29;20032;-61
2021/05/19 08:24:55;;;;;;;3.60;3.40;;;;;;;23.05;37.60;96579.75;4927718;29;20059;-60
2021/05/19 08:27:21;;;;;;;4.53;3.45;;;;;;;23.20;39.08;96541.19;4926697;29;20146;-64
2021/05/19 08:29:47;;;;;;;4.22;3.50;;;;;;;23.85;35.79;96572.84;4919754;29;20074;-61
2021/05/19 08:32:12;;;;;;;3.53;3.33;;;;;;;23.77;34.37;96532.72;4906876;29;20443;-61
2021/05/19 08:34:38;;;;;;;3.63;3.42;;;;;;;24.39;34.41;96563.63;4926102;29;20047;-58
2021/05/19 08:37:04;;;;;;;4.45;4.05;;;;;;;23.49;35.92;96434.22;4927028;29;20032;-61
2021/05/19 08:39:29;;;;;;;4.13;3.83;;;;;;;24.57;36.12;96575.72;4927417;29;20036;-58
2021/05/19 08:41:55;;;;;;;4.07;3.70;;;;;;;24.59;37.03;96519.38;4927356;29;20570;-58
2021/05/19 08:44:20;;;;;;;4.22;3.88;;;;;;;25.05;35.96;96554.06;4934739;29;20146;-59
2021/05/19 08:46:48;;;;;;;3.92;3.67;;;;;;;25.32;33.96;96574.59;4931250;28;20039;-58
2021/05/19 08:49:15;;;;;;;3.90;3.60;;;;;;;25.21;29.60;96540.28;4932563;29;20110;-60
2021/05/19 08:51:42;;;;;;;4.20;3.47;;;;;;;24.77;30.30;96481.75;4944366;28;20491;-58
2021/05/19 08:54:09;;;;;;;4.38;4.00;;;;;;;25.34;31.28;96542.94;4938549;29;20522;-57
2021/05/19 08:56:43;;;;;;;3.78;3.47;;;;;;;25.46;31.36;96544.00;4930052;29;20514;-58
2021/05/19 08:59:08;;;;;;;4.00;3.70;;;;;;;25.64;29.26;96529.72;4934008;29;20455;-57
2021/05/19 09:01:44;;;;;;;4.28;3.45;;;;;;;25.60;30.23;96551.78;4932034;29;20032;-56
2021/05/19 09:04:22;;;;;;;4.07;3.88;;;;;;;25.14;30.84;96540.66;4932083;29;20039;-57
2021/05/19 09:06:59;;;;;;;4.22;3.85;;;;;;;22.46;30.96;96121.44;4928963;29;20028;-59
2021/05/19 09:09:29;;;;;;;4.13;3.83;;;;;;;24.81;30.32;96500.16;4930009;29;20120;-59
2021/05/19 09:11:57;;;;;;;6.88;3.78;;;;;;;24.95;30.38;96536.31;4928884;29;20109;-60
2021/05/19 09:14:24;;;;;;;4.00;3.80;;;;;;;25.12;32.12;96531.81;4932172;29;20523;-58
2021/05/19 09:16:49;;;;;;;4.00;3.80;;;;;;;25.20;30.75;96533.06;4935281;29;20491;-58
2021/05/19 09:19:15;;;;;;;3.83;3.63;;;;;;;25.15;31.00;96530.88;4928429;29;20054;-58
2021/05/19 09:21:43;;;;;;;3.63;3.50;;;;;;;24.98;31.87;96489.22;4934774;28;20114;-59
2021/05/19 09:24:30;;;;;;;6.38;4.13;;;;;;;25.21;30.86;96545.19;4927025;29;20549;-59
2021/05/19 09:26:58;;;;;;;4.70;4.40;;;;;;;24.77;31.23;96510.09;4916888;29;20038;-58
2021/05/19 09:29:26;;;;;;;4.90;3.78;;;;;;;25.04;31.08;96524.94;4932527;28;20055;-59
2021/05/19 09:31:58;;;;;;;4.22;3.92;;;;;;;25.13;33.03;96532.63;4933357;28;20090;-59
2021/05/19 09:34:29;;;;;;;4.55;4.15;;;;;;;24.99;31.82;96510.63;4928509;29;20105;-62
2021/05/19 09:37:13;;;;;;;5.45;4.07;;;;;;;24.96;33.84;96540.69;4932752;28;20573;-60
2021/05/19 09:39:51;;;;;;;6.22;3.90;;;;;;;24.93;32.82;96524.66;4929830;29;20122;-60
2021/05/19 09:42:46;;;;;;;4.00;3.80;;;;;;;24.94;32.07;96517.72;4918165;29;20104;-58
2021/05/19 09:45:38;;;;;;;5.35;4.10;;;;;;;24.87;31.11;96483.28;4921056;29;20543;-58
2021/05/19 09:48:04;;;;;;;4.47;3.80;;;;;;;25.17;30.67;96505.66;4943928;29;20031;-56
2021/05/19 09:50:43;;;;;;;3.92;3.60;;;;;;;25.14;31.23;96512.31;4943227;29;20066;-57
2021/05/19 09:53:14;;;;;;;4.03;3.72;;;;;;;25.03;29.45;96495.03;4946043;28;20082;-58
2021/05/19 09:56:02;;;;;;;4.75;4.25;;;;;;;25.29;29.23;96495.38;4945208;29;20043;-57
2021/05/19 09:58:36;;;;;;;4.72;4.03;;;;;;;25.51;28.33;96507.25;4945788;29;20027;-58
2021/05/19 10:01:04;;;;;;;4.70;4.25;;;;;;;25.10;28.19;96381.28;4945582;28;20506;-59
2021/05/19 10:03:33;;;;;;;3.97;3.67;;;;;;;26.21;28.56;96485.78;4945292;28;20466;-57
2021/05/19 10:06:08;;;;;;;4.40;4.05;;;;;;;26.05;28.90;96489.09;4945192;28;20066;-57
2021/05/19 10:08:34;;;;;;;3.92;3.70;;;;;;;26.11;29.21;96478.63;4945151;28;20409;-58
2021/05/19 10:11:04;;;;;;;5.63;4.15;;;;;;;26.15;28.87;96484.88;4945230;28;20039;-57
2021/05/19 10:13:31;;;;;;;4.25;3.95;;;;;;;26.06;28.21;96473.63;4945852;28;20592;-56
2021/05/19 10:15:59;;;;;;;4.28;4.07;;;;;;;25.64;28.79;96407.72;4945588;28;20455;-57
2021/05/19 10:18:29;;;;;;;4.30;4.05;;;;;;;25.77;30.03;96502.66;4944979;28;20126;-56
2021/05/19 10:20:56;;;;;;;4.07;3.88;;;;;;;26.25;29.83;96475.03;4925909;29;20040;-57
2021/05/19 10:23:28;;;;;;;5.60;4.18;;;;;;;26.50;28.74;96475.25;4925519;29;20079;-57
2021/05/19 10:26:10;;;;;;;4.68;4.45;;;;;;;27.05;29.50;96475.41;4925534;29;20123;-57
2021/05/19 10:28:42;;;;;;;4.57;4.30;;;;;;;27.00;28.81;96472.50;4924266;29;20415;-57
2021/05/19 10:31:31;;;;;;;4.30;4.10;;;;;;;26.77;27.81;96465.66;4923918;29;20043;-58
2021/05/19 10:33:59;;;;;;;4.82;4.43;;;;;;;26.88;28.42;96471.53;4929653;29;20505;-56
2021/05/19 10:36:24;;;;;;;4.65;4.35;;;;;;;27.03;27.79;96466.59;4942950;29;20090;-56
2021/05/19 10:39:10;;;;;;;4.85;4.50;;;;;;;27.17;28.96;96454.44;4934540;28;20040;-61
2021/05/19 10:41:39;;;;;;;4.68;4.38;;;;;;;27.08;27.75;96391.19;4932178;29;20043;-59
2021/05/19 10:44:07;;;;;;;4.55;4.15;;;;;;;26.73;27.94;96343.66;4929544;29;20131;-59
2021/05/19 10:49:42;;;;;;;4.93;4.63;;;;;;;27.42;27.63;96430.25;4929378;29;20540;-59
2021/05/19 10:57:10;;;;;;;4.68;4.38;;;;;;;27.08;26.48;96437.47;4929224;29;20046;-57
2021/05/19 10:57:44;;;;;;;5.43;4.93;;;;;;;27.06;27.75;96431.50;4931158;29;20058;-58
2021/05/19 11:00:11;;;;;;;5.60;5.15;;;;;;;26.92;28.33;96428.69;4930096;29;20040;-57
2021/05/19 11:02:55;;;;;;;4.78;4.22;;;;;;;27.28;27.42;96420.50;4930015;29;20035;-60
2021/05/19 11:05:22;;;;;;;5.22;4.82;;;;;;;27.13;27.58;96433.94;4920629;29;20040;-56
2021/05/19 11:10:39;;;;;;;4.90;4.28;;;;;;;26.98;27.71;96424.66;4909852;29;20044;-60
2021/05/19 11:13:05;;;;;;;;;;;;;;;26.95;28.08;96419.97;4907569;29;20035;-57
2021/05/19 11:16:13;;;;;;;4.97;4.68;;;;;;;27.04;26.96;96417.00;4909663;29;19926;-61
2021/05/19 11:21:17;;;;;;;4.85;4.45;;;;;;;27.53;26.76;96407.63;4918145;29;20178;-61
2021/05/19 11:23:57;;;;;;;5.22;4.53;;;;;;;27.56;26.65;96407.41;4923571;29;20555;-59
2021/05/19 11:26:23;;;;;;;4.07;3.80;;;;;;;26.22;27.40;96325.50;4909111;29;20028;-62
2021/05/19 11:28:55;;;;;;;5.07;4.45;;;;;;;27.21;27.71;96403.00;4889433;29;20135;-56
2021/05/19 11:31:22;;;;;;;4.78;4.35;;;;;;;25.27;26.44;96092.44;4894134;29;20036;-57
2021/05/19 11:34:00;;;;;;;4.60;4.30;;;;;;;26.61;26.17;96333.38;4894877;29;20093;-57
2021/05/19 11:36:35;;;;;;;4.88;4.45;;;;;;;26.72;25.97;96327.09;4901631;29;20495;-63
2021/05/19 11:39:19;;;;;;;6.50;5.00;;;;;;;26.46;27.08;96297.75;4903538;29;20756;-58
2021/05/19 11:41:44;;;;;;;;;;;;;;;26.94;27.53;96384.25;4899293;29;20035;-57
2021/05/19 11:44:28;;;;;;;4.82;4.55;;;;;;;27.12;27.28;96384.03;4890133;29;20326;-60
2021/05/19 11:46:53;;;;;;;4.38;4.18;;;;;;;26.58;27.19;96322.19;4889149;29;20731;-60
2021/05/19 11:49:19;;;;;;;4.50;4.20;;;;;;;26.74;26.69;96316.00;4899200;29;20044;-58
2021/05/19 11:51:44;;;;;;;4.88;4.50;;;;;;;27.05;26.20;96333.25;4901817;29;20464;-59
2021/05/19 11:54:10;;;;;;;4.63;4.32;;;;;;;27.53;25.53;96379.16;4899212;29;20059;-58
2021/05/19 11:56:47;;;;;;;5.68;5.13;;;;;;;26.76;26.30;96270.84;4901286;29;20122;-61